Time;durP1;ratioP1;P1;durP2;ratioP2;P2;SDS_P1;SDS_P2;PMS_P1;PMS_P2;Temp;Humidity;BMP_temperature;BMP_pressure;BME280_temperature;BME280_humidity;BME280_pressure;Samples;Min_cycle;Max_cycle;Signal;HPM_P1;HPM_P2
2023/04/23 00:02:01;;;;;;;4.75;4.38;;;;;;;;;;5074864;28;20025;-28
2023/04/23 00:04:28;;;;;;;4.80;4.50;;;;;;;;;;5056864;28;20021;-28
2023/04/23 00:06:54;;;;;;;4.00;3.80;;;;;;;;;;5074699;28;20020;-28
2023/04/23 00:09:22;;;;;;;4.28;4.07;;;;;;;;;;5057001;28;20082;-28
2023/04/23 00:11:49;;;;;;;4.60;4.30;;;;;;;;;;5074818;28;20031;-28
2023/04/23 00:14:15;;;;;;;4.70;4.40;;;;;;;;;;5056945;28;20431;-29
2023/04/23 00:16:41;;;;;;;4.03;3.83;;;;;;;;;;5074544;28;20021;-29
2023/04/23 00:19:07;;;;;;;4.18;3.97;;;;;;;;;;5056877;28;20025;-28
2023/04/23 00:21:34;;;;;;;4.72;4.43;;;;;;;;;;5074724;28;20093;-26
2023/04/23 00:24:00;;;;;;;4.07;3.88;;;;;;;;;;5074370;28;20032;-26
2023/04/23 00:26:26;;;;;;;3.85;3.65;;;;;;;;;;5074490;28;20028;-26
2023/04/23 00:28:52;;;;;;;4.80;4.50;;;;;;;;;;5074751;28;20028;-27
2023/04/23 00:31:21;;;;;;;4.32;4.10;;;;;;;;;;5056809;28;20464;-30
2023/04/23 00:33:47;;;;;;;3.90;3.70;;;;;;;;;;5074365;28;20103;-26
2023/04/23 00:36:13;;;;;;;4.15;3.92;;;;;;;;;;5074872;28;20020;-27
2023/04/23 00:38:39;;;;;;;3.90;3.70;;;;;;;;;;5074625;28;20021;-27
2023/04/23 00:41:06;;;;;;;3.83;3.63;;;;;;;;;;5056642;28;20515;-27
2023/04/23 00:43:33;;;;;;;4.50;4.10;;;;;;;;;;5074563;28;20064;-29
2023/04/23 00:45:59;;;;;;;4.43;4.13;;;;;;;;;;5074306;28;20090;-28
2023/04/23 00:48:25;;;;;;;4.80;4.50;;;;;;;;;;5056655;28;20024;-30
2023/04/23 00:51:05;;;;;;;4.60;4.20;;;;;;;;;;5074286;28;20024;-29
2023/04/23 00:53:31;;;;;;;3.85;3.65;;;;;;;;;;5056540;28;20025;-29
2023/04/23 00:55:57;;;;;;;4.47;4.22;;;;;;;;;;5074794;28;20382;-27
2023/04/23 00:58:24;;;;;;;4.22;4.00;;;;;;;;;;5074426;28;20029;-29
2023/04/23 01:00:50;;;;;;;3.75;3.55;;;;;;;;;;5077743;28;20021;-30
2023/04/23 01:03:20;;;;;;;4.00;3.80;;;;;;;;;;5078157;28;20039;-28
2023/04/23 01:05:48;;;;;;;3.85;3.65;;;;;;;;;;5077956;28;20052;-27
2023/04/23 01:08:15;;;;;;;3.90;3.70;;;;;;;;;;5060307;28;20021;-29
2023/04/23 01:10:44;;;;;;;3.22;3.03;;;;;;;;;;5078178;28;20017;-28
2023/04/23 01:13:12;;;;;;;3.78;3.58;;;;;;;;;;5060152;28;20075;-27
2023/04/23 01:15:38;;;;;;;3.85;3.65;;;;;;;;;;5077807;28;20051;-27
2023/04/23 01:18:06;;;;;;;3.72;3.53;;;;;;;;;;5078002;28;20410;-29
2023/04/23 01:20:33;;;;;;;4.03;3.83;;;;;;;;;;5077963;28;20366;-27
2023/04/23 01:22:59;;;;;;;3.53;3.33;;;;;;;;;;5077507;28;20025;-27
2023/04/23 01:25:25;;;;;;;3.92;3.72;;;;;;;;;;5077861;28;20032;-25
2023/04/23 01:27:52;;;;;;;3.65;3.45;;;;;;;;;;5077581;28;20074;-27
2023/04/23 01:30:18;;;;;;;4.25;3.95;;;;;;;;;;5077475;28;20039;-27
2023/04/23 01:32:44;;;;;;;3.80;3.60;;;;;;;;;;5077399;28;20020;-29
2023/04/23 01:35:11;;;;;;;3.60;3.40;;;;;;;;;;5077450;28;20032;-28
2023/04/23 01:37:38;;;;;;;3.95;3.75;;;;;;;;;;5077638;28;20036;-30
2023/04/23 01:40:07;;;;;;;4.18;3.97;;;;;;;;;;5077328;28;20024;-28
2023/04/23 01:42:33;;;;;;;3.30;3.10;;;;;;;;;;5077217;28;20364;-26
2023/04/23 01:44:59;;;;;;;3.40;3.20;;;;;;;;;;5077266;28;20023;-28
2023/04/23 01:47:25;;;;;;;3.80;3.60;;;;;;;;;;5077472;28;20029;-28
2023/04/23 01:49:51;;;;;;;3.58;3.38;;;;;;;;;;5077701;28;20115;-29
2023/04/23 01:52:18;;;;;;;3.40;3.20;;;;;;;;;;5077028;28;20541;-28
2023/04/23 01:54:44;;;;;;;3.58;3.38;;;;;;;;;;5059495;28;20024;-30
2023/04/23 01:57:10;;;;;;;3.88;3.58;;;;;;;;;;5077329;28;20100;-28
2023/04/23 01:59:37;;;;;;;3.75;3.55;;;;;;;;;;5076987;28;20032;-28
2023/04/23 02:02:04;;;;;;;4.28;3.97;;;;;;;;;;5077041;28;20407;-31
2023/04/23 02:04:30;;;;;;;3.70;3.50;;;;;;;;;;5076771;28;20017;-27
2023/04/23 02:06:56;;;;;;;3.45;3.25;;;;;;;;;;5076834;28;20020;-30
2023/04/23 02:09:24;;;;;;;3.58;3.38;;;;;;;;;;5076715;28;20044;-27
2023/04/23 02:11:50;;;;;;;3.50;3.30;;;;;;;;;;5075872;28;20387;-31
2023/04/23 02:14:16;;;;;;;3.35;3.15;;;;;;;;;;5059076;28;20052;-31
2023/04/23 02:16:43;;;;;;;3.58;3.38;;;;;;;;;;5076650;28;20078;-28
2023/04/23 02:19:10;;;;;;;3.58;3.38;;;;;;;;;;5076649;28;20020;-31
2023/04/23 02:21:36;;;;;;;3.58;3.38;;;;;;;;;;5076756;28;20107;-32
2023/04/23 02:24:04;;;;;;;3.35;3.15;;;;;;;;;;5076434;28;20024;-26
2023/04/23 02:26:30;;;;;;;3.42;3.22;;;;;;;;;;5076440;28;20024;-30
2023/04/23 02:28:56;;;;;;;3.63;3.42;;;;;;;;;;5076429;28;20440;-29
2023/04/23 02:31:22;;;;;;;3.40;3.20;;;;;;;;;;5076665;28;20036;-29
2023/04/23 02:33:48;;;;;;;3.13;2.95;;;;;;;;;;5076530;28;20062;-30
2023/04/23 02:36:15;;;;;;;3.45;3.25;;;;;;;;;;5058571;28;20097;-28
2023/04/23 02:38:43;;;;;;;3.13;2.92;;;;;;;;;;5076239;28;20466;-30
2023/04/23 02:41:09;;;;;;;3.60;3.40;;;;;;;;;;5076411;28;20086;-26
2023/04/23 02:43:35;;;;;;;3.65;3.45;;;;;;;;;;5076002;28;20065;-29
2023/04/23 02:46:07;;;;;;;3.67;3.38;;;;;;;;;;5076047;28;20021;-27
2023/04/23 02:48:37;;;;;;;3.30;3.10;;;;;;;;;;5076599;28;20444;-30
2023/04/23 02:51:03;;;;;;;3.50;3.30;;;;;;;;;;5076298;28;20363;-30
2023/04/23 02:53:29;;;;;;;4.05;3.85;;;;;;;;;;5075878;28;20367;-28
2023/04/23 02:55:55;;;;;;;3.67;3.47;;;;;;;;;;5076151;28;20025;-30
2023/04/23 02:58:21;;;;;;;2.92;2.72;;;;;;;;;;5076081;28;20347;-30
2023/04/23 03:00:47;;;;;;;3.15;2.95;;;;;;;;;;5075758;28;20419;-27
2023/04/23 03:03:13;;;;;;;3.90;3.70;;;;;;;;;;5075535;28;20020;-30
2023/04/23 03:05:40;;;;;;;3.55;3.35;;;;;;;;;;5075596;28;20502;-29
2023/04/23 03:08:06;;;;;;;3.55;3.35;;;;;;;;;;5075625;28;20499;-26
2023/04/23 03:10:32;;;;;;;3.33;3.17;;;;;;;;;;5075859;28;20020;-31
2023/04/23 03:12:58;;;;;;;3.45;3.25;;;;;;;;;;5075389;28;20040;-29
2023/04/23 03:15:26;;;;;;;3.35;3.15;;;;;;;;;;5075454;28;20020;-31
2023/04/23 03:17:52;;;;;;;3.90;3.70;;;;;;;;;;5075470;28;20024;-29
2023/04/23 03:20:19;;;;;;;3.55;3.35;;;;;;;;;;5075423;28;20355;-27
2023/04/23 03:22:45;;;;;;;3.75;3.55;;;;;;;;;;5074960;28;20081;-30
2023/04/23 03:25:11;;;;;;;3.63;3.42;;;;;;;;;;5075540;28;20020;-29
2023/04/23 03:27:41;;;;;;;3.42;3.22;;;;;;;;;;5075486;28;20032;-26
2023/04/23 03:30:08;;;;;;;3.90;3.70;;;;;;;;;;5075438;28;20071;-26
2023/04/23 03:32:34;;;;;;;3.40;3.20;;;;;;;;;;5075476;28;20025;-30
2023/04/23 03:35:00;;;;;;;2.85;2.70;;;;;;;;;;5057720;28;20058;-27
2023/04/23 03:37:27;;;;;;;3.63;3.40;;;;;;;;;;5075059;28;20063;-30
2023/04/23 03:39:53;;;;;;;3.30;3.10;;;;;;;;;;5075021;28;20028;-30
2023/04/23 03:42:19;;;;;;;3.10;2.90;;;;;;;;;;5074861;28;20031;-29
2023/04/23 03:44:45;;;;;;;2.80;2.70;;;;;;;;;;5074950;28;20073;-27
2023/04/23 03:47:11;;;;;;;3.08;2.92;;;;;;;;;;5074922;28;20036;-30
2023/04/23 03:49:37;;;;;;;3.20;3.00;;;;;;;;;;5075173;28;20029;-28
2023/04/23 03:52:03;;;;;;;3.05;2.92;;;;;;;;;;5057228;28;20033;-30
2023/04/23 03:54:29;;;;;;;3.53;3.33;;;;;;;;;;5057179;28;20028;-29
2023/04/23 03:56:56;;;;;;;3.67;3.38;;;;;;;;;;5074867;28;20525;-30
2023/04/23 03:59:22;;;;;;;4.32;4.03;;;;;;;;;;5074809;28;20052;-26
2023/04/23 04:01:49;;;;;;;3.30;3.10;;;;;;;;;;5074550;28;20024;-29
2023/04/23 04:04:15;;;;;;;3.50;3.30;;;;;;;;;;5074565;28;20052;-32
2023/04/23 04:06:41;;;;;;;3.33;3.13;;;;;;;;;;5075275;28;20032;-29
2023/04/23 04:09:08;;;;;;;2.90;2.80;;;;;;;;;;5074645;28;20020;-30
2023/04/23 04:11:34;;;;;;;3.33;3.13;;;;;;;;;;5074576;28;20444;-27
2023/04/23 04:14:00;;;;;;;3.40;3.20;;;;;;;;;;5074540;28;20031;-30
2023/04/23 04:16:26;;;;;;;3.40;3.20;;;;;;;;;;5074558;28;20033;-27
2023/04/23 04:18:52;;;;;;;3.22;3.03;;;;;;;;;;5074849;28;20359;-30
2023/04/23 04:21:19;;;;;;;3.10;2.90;;;;;;;;;;5074465;28;20085;-28
2023/04/23 04:23:45;;;;;;;2.95;2.85;;;;;;;;;;5056813;28;20074;-27
2023/04/23 04:26:12;;;;;;;3.25;3.05;;;;;;;;;;5074458;28;20351;-28
2023/04/23 04:28:38;;;;;;;3.08;2.90;;;;;;;;;;5074705;28;20028;-29
2023/04/23 04:31:05;;;;;;;3.50;3.30;;;;;;;;;;5075233;28;20035;-29
2023/04/23 04:33:34;;;;;;;3.13;2.92;;;;;;;;;;5057034;28;20511;-29
2023/04/23 04:36:00;;;;;;;3.17;3.00;;;;;;;;;;5078415;28;20032;-27
2023/04/23 04:38:28;;;;;;;3.50;3.30;;;;;;;;;;5078503;28;20032;-32
2023/04/23 04:40:57;;;;;;;3.47;3.28;;;;;;;;;;5078440;28;20046;-29
2023/04/23 04:43:23;;;;;;;3.25;3.05;;;;;;;;;;5078313;28;20044;-29
2023/04/23 04:45:50;;;;;;;3.60;3.40;;;;;;;;;;5078424;28;20029;-29
2023/04/23 04:48:16;;;;;;;3.25;3.05;;;;;;;;;;5078597;28;20036;-28
2023/04/23 04:50:43;;;;;;;3.58;3.38;;;;;;;;;;5078571;28;20348;-30
2023/04/23 04:53:09;;;;;;;3.08;2.88;;;;;;;;;;5078135;28;20486;-30
2023/04/23 04:55:35;;;;;;;3.30;3.10;;;;;;;;;;5078219;28;20036;-30
2023/04/23 04:58:01;;;;;;;3.10;3.00;;;;;;;;;;5078202;28;20024;-29
2023/04/23 05:00:28;;;;;;;3.30;3.10;;;;;;;;;;5078132;28;20497;-30
2023/04/23 05:02:55;;;;;;;3.28;3.08;;;;;;;;;;5077894;28;20028;-26
2023/04/23 05:05:22;;;;;;;3.13;2.97;;;;;;;;;;5077948;28;20060;-30
2023/04/23 05:07:48;;;;;;;3.40;3.20;;;;;;;;;;5077968;28;20048;-28
2023/04/23 05:10:15;;;;;;;3.22;3.03;;;;;;;;;;5077921;28;20402;-30
2023/04/23 05:12:42;;;;;;;2.97;2.80;;;;;;;;;;5077816;28;20024;-29
2023/04/23 05:15:08;;;;;;;3.25;3.05;;;;;;;;;;5078074;28;20044;-32
2023/04/23 05:17:35;;;;;;;2.85;2.75;;;;;;;;;;5078087;28;20450;-31
2023/04/23 05:20:01;;;;;;;3.38;3.17;;;;;;;;;;5077674;28;20115;-29
2023/04/23 05:22:28;;;;;;;3.20;3.00;;;;;;;;;;5077793;28;20024;-31
2023/04/23 05:24:54;;;;;;;3.05;2.88;;;;;;;;;;5077920;28;20347;-29
2023/04/23 05:27:20;;;;;;;3.10;2.90;;;;;;;;;;5077576;28;20439;-27
2023/04/23 05:29:46;;;;;;;3.30;3.10;;;;;;;;;;5077582;28;20040;-32
2023/04/23 05:32:12;;;;;;;2.70;2.60;;;;;;;;;;5077414;28;20356;-32
2023/04/23 05:34:39;;;;;;;3.75;3.55;;;;;;;;;;5077710;28;20328;-30
2023/04/23 05:37:05;;;;;;;3.17;3.03;;;;;;;;;;5077414;28;20037;-32
2023/04/23 05:39:31;;;;;;;3.38;3.17;;;;;;;;;;5077329;28;20032;-31
2023/04/23 05:41:57;;;;;;;3.20;3.00;;;;;;;;;;5077445;28;20028;-31
2023/04/23 05:44:23;;;;;;;3.17;2.97;;;;;;;;;;5077317;28;20048;-29
2023/04/23 05:46:49;;;;;;;3.35;3.15;;;;;;;;;;5077428;28;20032;-30
2023/04/23 05:49:16;;;;;;;3.10;2.90;;;;;;;;;;5077242;28;20603;-29
2023/04/23 05:51:42;;;;;;;2.88;2.78;;;;;;;;;;5077133;28;20032;-30
2023/04/23 05:54:08;;;;;;;2.88;2.78;;;;;;;;;;5059442;28;20024;-28
2023/04/23 05:56:34;;;;;;;3.40;3.20;;;;;;;;;;5077350;28;20108;-30
2023/04/23 05:59:00;;;;;;;3.00;2.90;;;;;;;;;;5077286;28;20039;-30
2023/04/23 06:01:26;;;;;;;3.20;3.00;;;;;;;;;;5077183;28;20033;-28
2023/04/23 06:03:52;;;;;;;3.15;3.05;;;;;;;;;;5059254;28;20024;-31
2023/04/23 06:06:18;;;;;;;3.40;3.20;;;;;;;;;;5076821;28;20052;-32
2023/04/23 06:08:44;;;;;;;2.80;2.70;;;;;;;;;;5077380;28;20325;-30
2023/04/23 06:11:10;;;;;;;2.75;2.63;;;;;;;;;;5076838;28;20375;-29
2023/04/23 06:13:39;;;;;;;2.75;2.63;;;;;;;;;;5059018;28;20056;-31
2023/04/23 06:16:07;;;;;;;3.20;3.00;;;;;;;;;;5076933;28;20035;-29
2023/04/23 06:18:33;;;;;;;3.33;3.13;;;;;;;;;;5076946;28;20102;-34
2023/04/23 06:21:03;;;;;;;2.75;2.65;;;;;;;;;;5076856;28;20513;-31
2023/04/23 06:23:29;;;;;;;3.10;2.90;;;;;;;;;;5076660;28;20028;-27
2023/04/23 06:25:55;;;;;;;3.15;3.00;;;;;;;;;;5076520;28;20020;-29
2023/04/23 06:28:21;;;;;;;3.30;3.10;;;;;;;;;;5077037;28;20388;-31
2023/04/23 06:30:47;;;;;;;3.22;2.97;;;;;;;;;;5076692;28;20036;-28
2023/04/23 06:33:14;;;;;;;2.88;2.67;;;;;;;;;;5076271;28;20028;-34
2023/04/23 06:35:40;;;;;;;3.05;2.85;;;;;;;;;;5076293;28;20025;-29
2023/04/23 06:38:06;;;;;;;2.95;2.85;;;;;;;;;;5076735;28;20032;-30
2023/04/23 06:40:33;;;;;;;3.30;3.10;;;;;;;;;;5076502;28;20024;-29
2023/04/23 06:43:03;;;;;;;2.47;2.38;;;;;;;;;;5076008;28;20024;-30
2023/04/23 06:45:30;;;;;;;3.50;3.30;;;;;;;;;;5076065;28;20020;-26
2023/04/23 06:47:56;;;;;;;3.00;2.80;;;;;;;;;;5076338;28;20087;-31
2023/04/23 06:50:23;;;;;;;2.70;2.60;;;;;;;;;;5076036;28;20169;-29
2023/04/23 06:52:49;;;;;;;3.00;2.80;;;;;;;;;;5076162;28;20059;-27
2023/04/23 06:55:15;;;;;;;3.20;3.00;;;;;;;;;;5076174;28;20103;-29
2023/04/23 06:57:41;;;;;;;3.08;2.92;;;;;;;;;;5057700;28;20035;-31
2023/04/23 07:00:08;;;;;;;3.00;2.80;;;;;;;;;;5076112;28;20021;-30
2023/04/23 07:02:34;;;;;;;3.35;3.15;;;;;;;;;;5058040;28;20029;-31
2023/04/23 07:05:00;;;;;;;2.85;2.75;;;;;;;;;;5075535;28;20047;-29
2023/04/23 07:07:26;;;;;;;2.80;2.70;;;;;;;;;;5075665;28;20024;-31
2023/04/23 07:09:52;;;;;;;3.30;3.10;;;;;;;;;;5075664;28;20039;-29
2023/04/23 07:12:18;;;;;;;3.35;3.15;;;;;;;;;;5075499;28;20032;-29
2023/04/23 07:14:44;;;;;;;3.50;3.30;;;;;;;;;;5075813;28;20103;-26
2023/04/23 07:17:11;;;;;;;3.00;2.80;;;;;;;;;;5076006;28;20392;-29
2023/04/23 07:19:37;;;;;;;3.00;2.80;;;;;;;;;;5075466;28;20031;-31
2023/04/23 07:22:03;;;;;;;3.00;2.80;;;;;;;;;;5075458;28;20363;-27
2023/04/23 07:24:29;;;;;;;3.33;3.13;;;;;;;;;;5075305;28;20043;-31
2023/04/23 07:26:55;;;;;;;3.30;3.10;;;;;;;;;;5075589;28;20017;-28
2023/04/23 07:29:22;;;;;;;3.03;2.83;;;;;;;;;;5075218;28;20440;-31
2023/04/23 07:31:48;;;;;;;2.92;2.72;;;;;;;;;;5075100;28;20344;-30
2023/04/23 07:34:14;;;;;;;3.35;3.15;;;;;;;;;;5075055;28;20036;-28
2023/04/23 07:36:40;;;;;;;2.85;2.75;;;;;;;;;;5075128;28;20024;-32
2023/04/23 07:39:07;;;;;;;2.55;2.45;;;;;;;;;;5075019;28;20040;-28
2023/04/23 07:41:33;;;;;;;2.92;2.78;;;;;;;;;;5074962;28;20028;-28
2023/04/23 07:43:59;;;;;;;2.42;2.33;;;;;;;;;;5075113;28;20017;-30
2023/04/23 07:46:25;;;;;;;3.15;3.00;;;;;;;;;;5074990;28;20012;-32
2023/04/23 07:48:52;;;;;;;3.33;3.13;;;;;;;;;;5075235;28;20103;-31
2023/04/23 07:51:18;;;;;;;2.92;2.80;;;;;;;;;;5075134;28;20020;-29
2023/04/23 07:53:45;;;;;;;3.90;3.60;;;;;;;;;;5075067;28;20087;-27
2023/04/23 07:56:12;;;;;;;3.60;3.40;;;;;;;;;;5075047;28;20355;-31
2023/04/23 07:58:38;;;;;;;2.90;2.70;;;;;;;;;;5075014;28;20052;-32
2023/04/23 08:01:04;;;;;;;3.00;2.85;;;;;;;;;;5057599;28;20047;-31
2023/04/23 08:03:30;;;;;;;3.55;3.35;;;;;;;;;;5074824;28;20026;-27
2023/04/23 08:05:56;;;;;;;3.20;3.00;;;;;;;;;;5074432;28;20049;-32
2023/04/23 08:08:22;;;;;;;3.15;2.95;;;;;;;;;;5074282;28;20398;-26
2023/04/23 08:10:48;;;;;;;3.95;3.35;;;;;;;;;;5074673;28;20035;-29
2023/04/23 08:13:15;;;;;;;3.22;3.03;;;;;;;;;;5074514;28;20075;-30
2023/04/23 08:15:41;;;;;;;3.50;3.30;;;;;;;;;;5074836;28;20035;-31
2023/04/23 08:18:07;;;;;;;3.58;3.38;;;;;;;;;;5074758;28;20020;-31
2023/04/23 08:20:33;;;;;;;4.45;4.15;;;;;;;;;;5074517;28;20056;-31
2023/04/23 08:22:59;;;;;;;3.60;3.40;;;;;;;;;;5074627;28;20424;-28
2023/04/23 08:25:26;;;;;;;3.28;3.08;;;;;;;;;;5074806;28;20320;-29
2023/04/23 08:27:52;;;;;;;2.92;2.83;;;;;;;;;;5074711;28;20048;-27
2023/04/23 08:30:18;;;;;;;3.05;2.85;;;;;;;;;;5074662;28;20016;-31
2023/04/23 08:32:48;;;;;;;2.63;2.53;;;;;;;;;;5075115;28;20133;-30
2023/04/23 08:35:14;;;;;;;3.03;2.83;;;;;;;;;;5074403;28;20028;-27
2023/04/23 08:37:40;;;;;;;3.05;2.85;;;;;;;;;;5074368;28;20052;-29
2023/04/23 08:40:07;;;;;;;4.55;3.00;;;;;;;;;;5074362;28;20103;-29
2023/04/23 08:42:44;;;;;;;3.28;3.08;;;;;;;;;;5074129;28;20448;-28
2023/04/23 08:45:11;;;;;;;3.15;2.95;;;;;;;;;;5074349;28;20029;-29
2023/04/23 08:47:41;;;;;;;3.67;3.47;;;;;;;;;;5074563;28;20024;-27
2023/04/23 08:50:08;;;;;;;3.65;3.35;;;;;;;;;;5074208;28;20021;-30
2023/04/23 08:52:36;;;;;;;3.22;3.03;;;;;;;;;;5074347;28;20032;-31
2023/04/23 08:55:04;;;;;;;3.40;3.20;;;;;;;;;;5074172;28;20067;-27
2023/04/23 08:57:31;;;;;;;3.72;3.53;;;;;;;;;;5074198;28;20040;-29
2023/04/23 08:59:57;;;;;;;3.25;3.05;;;;;;;;;;5074189;28;20039;-25
2023/04/23 09:02:24;;;;;;;3.15;2.95;;;;;;;;;;5074413;28;20029;-29
2023/04/23 09:04:53;;;;;;;3.40;3.20;;;;;;;;;;5073964;28;20349;-27
2023/04/23 09:07:19;;;;;;;3.67;3.47;;;;;;;;;;5074372;28;20048;-29
2023/04/23 09:09:45;;;;;;;3.40;3.20;;;;;;;;;;5074172;28;20404;-29
2023/04/23 09:12:11;;;;;;;3.90;3.63;;;;;;;;;;5073981;28;20025;-28
2023/04/23 09:14:37;;;;;;;3.42;3.22;;;;;;;;;;5074298;28;20036;-30
2023/04/23 09:17:04;;;;;;;3.22;3.03;;;;;;;;;;5074032;28;20020;-27
2023/04/23 09:19:31;;;;;;;3.55;3.35;;;;;;;;;;5073941;28;20466;-31
2023/04/23 09:21:59;;;;;;;2.83;2.72;;;;;;;;;;5077427;28;20078;-27
2023/04/23 09:24:26;;;;;;;3.40;3.20;;;;;;;;;;5077949;28;20313;-31
2023/04/23 09:26:52;;;;;;;3.97;3.78;;;;;;;;;;5077659;28;20021;-28
2023/04/23 09:29:20;;;;;;;3.13;2.92;;;;;;;;;;5077557;28;20029;-30
2023/04/23 09:31:46;;;;;;;3.42;3.22;;;;;;;;;;5077881;28;20439;-30
2023/04/23 09:34:18;;;;;;;2.90;2.80;;;;;;;;;;5077737;28;20029;-28
2023/04/23 09:36:44;;;;;;;3.45;3.25;;;;;;;;;;5059912;28;20042;-30
2023/04/23 09:39:14;;;;;;;3.33;3.13;;;;;;;;;;5077385;28;20027;-31
2023/04/23 09:41:40;;;;;;;3.65;3.45;;;;;;;;;;5077536;28;20095;-30
2023/04/23 09:44:07;;;;;;;5.03;3.20;;;;;;;;;;5077490;28;20033;-30
2023/04/23 09:46:37;;;;;;;3.35;3.15;;;;;;;;;;5077339;28;20348;-30
2023/04/23 09:49:07;;;;;;;3.20;3.00;;;;;;;;;;5077534;28;20116;-30
2023/04/23 09:51:38;;;;;;;3.30;3.15;;;;;;;;;;5077554;28;20020;-29
2023/04/23 09:54:05;;;;;;;3.40;3.20;;;;;;;;;;5076982;28;20032;-32
2023/04/23 09:56:31;;;;;;;2.97;2.88;;;;;;;;;;5077078;28;20039;-28
2023/04/23 09:58:58;;;;;;;3.40;3.20;;;;;;;;;;5077597;28;20024;-28
2023/04/23 10:01:28;;;;;;;3.15;3.05;;;;;;;;;;5077309;28;20017;-26
2023/04/23 10:03:58;;;;;;;3.35;3.15;;;;;;;;;;5076901;28;20051;-28
2023/04/23 10:06:28;;;;;;;3.40;3.20;;;;;;;;;;5076936;28;20053;-31
2023/04/23 10:08:55;;;;;;;3.05;2.85;;;;;;;;;;5076897;28;20363;-30
2023/04/23 10:11:23;;;;;;;3.70;3.50;;;;;;;;;;5076802;28;20410;-29
2023/04/23 10:13:50;;;;;;;3.15;2.95;;;;;;;;;;5059099;28;20024;-31
2023/04/23 10:16:17;;;;;;;3.70;3.50;;;;;;;;;;5076640;28;20029;-29
2023/04/23 10:18:44;;;;;;;3.83;3.58;;;;;;;;;;5076651;28;20455;-30
2023/04/23 10:21:12;;;;;;;3.25;2.95;;;;;;;;;;5076897;28;20028;-30
2023/04/23 10:23:38;;;;;;;3.08;2.90;;;;;;;;;;5076396;28;20372;-27
2023/04/23 10:26:05;;;;;;;3.83;3.63;;;;;;;;;;5076790;28;20119;-30
2023/04/23 10:28:32;;;;;;;3.40;3.20;;;;;;;;;;5076545;28;20025;-27
2023/04/23 10:30:59;;;;;;;3.58;3.35;;;;;;;;;;5076265;28;20056;-31
2023/04/23 10:33:26;;;;;;;3.88;3.67;;;;;;;;;;5076112;28;20401;-27
2023/04/23 10:35:54;;;;;;;4.03;3.72;;;;;;;;;;5076598;28;20037;-29
2023/04/23 10:38:22;;;;;;;3.00;2.80;;;;;;;;;;5076315;28;20524;-29
2023/04/23 10:40:50;;;;;;;8.18;5.22;;;;;;;;;;5076190;28;20098;-27
2023/04/23 10:43:17;;;;;;;3.80;3.60;;;;;;;;;;5076287;28;20396;-30
2023/04/23 10:45:43;;;;;;;3.40;3.20;;;;;;;;;;5076172;28;20025;-31
2023/04/23 10:48:09;;;;;;;3.60;3.40;;;;;;;;;;5076037;28;20024;-29
2023/04/23 10:50:36;;;;;;;3.40;3.20;;;;;;;;;;5076016;28;20456;-32
2023/04/23 10:53:02;;;;;;;3.58;3.38;;;;;;;;;;5075863;28;20056;-29
2023/04/23 10:55:32;;;;;;;4.03;3.75;;;;;;;;;;5076477;28;20031;-31
2023/04/23 10:58:03;;;;;;;3.40;3.10;;;;;;;;;;5076097;28;20028;-30
2023/04/23 11:00:30;;;;;;;3.78;3.58;;;;;;;;;;5076097;28;20029;-31
2023/04/23 11:02:56;;;;;;;3.53;3.28;;;;;;;;;;5075603;28;20036;-28
2023/04/23 11:05:24;;;;;;;3.45;3.25;;;;;;;;;;5075592;28;20044;-30
2023/04/23 11:08:03;;;;;;;3.78;3.50;;;;;;;;;;5058077;28;20376;-31
2023/04/23 11:10:31;;;;;;;3.78;3.58;;;;;;;;;;5075608;28;20029;-30
2023/04/23 11:12:57;;;;;;;3.70;3.50;;;;;;;;;;5075875;28;20463;-27
2023/04/23 11:15:23;;;;;;;3.50;3.30;;;;;;;;;;5075523;28;20507;-30
2023/04/23 11:17:52;;;;;;;3.63;3.42;;;;;;;;;;5057870;28;20031;-30
2023/04/23 11:20:19;;;;;;;3.80;3.60;;;;;;;;;;5075645;28;20024;-27
2023/04/23 11:22:47;;;;;;;3.90;3.60;;;;;;;;;;5075485;28;20054;-30
2023/04/23 11:25:14;;;;;;;3.95;3.75;;;;;;;;;;5057727;28;20017;-30
2023/04/23 11:27:41;;;;;;;4.30;4.00;;;;;;;;;;5075253;28;20020;-28
2023/04/23 11:30:20;;;;;;;3.90;3.70;;;;;;;;;;5075155;28;20043;-29
2023/04/23 11:32:48;;;;;;;3.40;3.20;;;;;;;;;;5075120;28;20028;-31
2023/04/23 11:35:14;;;;;;;3.88;3.67;;;;;;;;;;5075176;28;20359;-28
2023/04/23 11:37:41;;;;;;;3.85;3.65;;;;;;;;;;5075069;28;20103;-29
2023/04/23 11:40:12;;;;;;;4.00;3.80;;;;;;;;;;5075271;28;20086;-30
2023/04/23 11:42:46;;;;;;;3.95;3.75;;;;;;;;;;5074672;28;20028;-27
2023/04/23 11:45:19;;;;;;;3.45;3.25;;;;;;;;;;5075023;28;20025;-30
2023/04/23 11:47:45;;;;;;;3.97;3.70;;;;;;;;;;5074950;28;20393;-30
2023/04/23 11:50:18;;;;;;;3.88;3.63;;;;;;;;;;5074818;28;20036;-27
2023/04/23 11:52:44;;;;;;;4.38;4.18;;;;;;;;;;5075050;28;20020;-27
2023/04/23 11:55:11;;;;;;;3.95;3.65;;;;;;;;;;5075079;28;20033;-27
2023/04/23 11:57:42;;;;;;;4.00;3.80;;;;;;;;;;5074763;28;20032;-31
2023/04/23 12:00:13;;;;;;;4.10;3.90;;;;;;;;;;5074772;28;20035;-30
2023/04/23 12:02:49;;;;;;;3.80;3.60;;;;;;;;;;5056936;28;20032;-29
2023/04/23 12:05:15;;;;;;;4.30;4.00;;;;;;;;;;5074745;28;20040;-30
2023/04/23 12:07:42;;;;;;;4.00;3.80;;;;;;;;;;5074966;28;20438;-30
2023/04/23 12:10:08;;;;;;;3.92;3.72;;;;;;;;;;5074651;28;20031;-29
2023/04/23 12:12:35;;;;;;;4.15;3.95;;;;;;;;;;5074766;28;20096;-29
2023/04/23 12:15:05;;;;;;;4.25;3.95;;;;;;;;;;5074507;28;20039;-31
2023/04/23 12:17:32;;;;;;;4.13;3.83;;;;;;;;;;5075154;28;20025;-29
2023/04/23 12:19:58;;;;;;;4.28;3.97;;;;;;;;;;5074495;28;20119;-30
2023/04/23 12:22:27;;;;;;;4.20;4.00;;;;;;;;;;5074388;28;20086;-30
2023/04/23 12:24:53;;;;;;;3.78;3.58;;;;;;;;;;5074770;28;20440;-30
2023/04/23 12:27:21;;;;;;;4.03;3.78;;;;;;;;;;5074484;28;20031;-32
2023/04/23 12:29:49;;;;;;;4.28;4.07;;;;;;;;;;5075227;28;20029;-27
2023/04/23 12:32:17;;;;;;;4.40;4.20;;;;;;;;;;5074608;28;20107;-32
2023/04/23 12:34:56;;;;;;;4.22;4.03;;;;;;;;;;5074693;28;20024;-29
2023/04/23 12:37:26;;;;;;;4.30;4.05;;;;;;;;;;5074727;28;20059;-28
2023/04/23 12:39:55;;;;;;;3.97;3.78;;;;;;;;;;5074375;28;20020;-27
2023/04/23 12:42:21;;;;;;;4.65;4.35;;;;;;;;;;5074478;28;20040;-28
2023/04/23 12:44:47;;;;;;;3.85;3.65;;;;;;;;;;5074606;28;20351;-30
2023/04/23 12:47:18;;;;;;;3.40;3.20;;;;;;;;;;5074583;28;20406;-26
2023/04/23 12:49:44;;;;;;;3.50;3.30;;;;;;;;;;5074652;28;20360;-31
2023/04/23 12:52:11;;;;;;;3.75;3.45;;;;;;;;;;5056775;28;20029;-28
2023/04/23 12:54:38;;;;;;;4.68;4.30;;;;;;;;;;5074197;28;20111;-29
2023/04/23 12:57:10;;;;;;;3.63;3.42;;;;;;;;;;5078220;28;20028;-30
2023/04/23 12:59:36;;;;;;;3.85;3.55;;;;;;;;;;5078702;28;20464;-31
2023/04/23 13:02:03;;;;;;;3.92;3.72;;;;;;;;;;5060268;28;20032;-30
2023/04/23 13:04:33;;;;;;;4.32;4.03;;;;;;;;;;5078146;28;20024;-29
2023/04/23 13:07:00;;;;;;;4.30;3.90;;;;;;;;;;5078348;28;20032;-29
2023/04/23 13:09:26;;;;;;;4.10;3.83;;;;;;;;;;5077993;28;20025;-28
2023/04/23 13:11:53;;;;;;;4.03;3.78;;;;;;;;;;5078086;28;20077;-30
2023/04/23 13:14:20;;;;;;;4.40;4.10;;;;;;;;;;5078091;28;20028;-30
2023/04/23 13:16:46;;;;;;;4.13;3.83;;;;;;;;;;5077853;28;20027;-30
2023/04/23 13:19:12;;;;;;;4.35;4.15;;;;;;;;;;5077763;28;20519;-30
2023/04/23 13:21:39;;;;;;;4.10;3.90;;;;;;;;;;5077644;28;20463;-30
2023/04/23 13:24:05;;;;;;;4.07;3.80;;;;;;;;;;5077831;28;20055;-30
2023/04/23 13:26:31;;;;;;;3.80;3.60;;;;;;;;;;5077910;28;20344;-27
2023/04/23 13:28:58;;;;;;;4.68;3.85;;;;;;;;;;5077820;28;20036;-29
2023/04/23 13:31:24;;;;;;;4.65;4.35;;;;;;;;;;5077775;28;20024;-27
2023/04/23 13:33:51;;;;;;;4.55;4.25;;;;;;;;;;5077386;28;20036;-30
2023/04/23 13:36:17;;;;;;;4.28;4.00;;;;;;;;;;5077424;28;20028;-35
2023/04/23 13:38:43;;;;;;;4.32;4.07;;;;;;;;;;5077365;28;20367;-26
2023/04/23 13:41:09;;;;;;;4.30;4.10;;;;;;;;;;5059731;28;20036;-30
2023/04/23 13:43:35;;;;;;;4.38;4.18;;;;;;;;;;5077221;28;20462;-29
2023/04/23 13:46:01;;;;;;;4.03;3.83;;;;;;;;;;5077282;28;20359;-28
2023/04/23 13:48:30;;;;;;;4.18;3.88;;;;;;;;;;5077477;28;20021;-32
2023/04/23 13:50:56;;;;;;;4.25;4.00;;;;;;;;;;5077427;28;20039;-30
2023/04/23 13:53:22;;;;;;;4.20;3.90;;;;;;;;;;5077012;28;20064;-27
2023/04/23 13:55:48;;;;;;;4.20;3.90;;;;;;;;;;5077412;28;20020;-31
2023/04/23 13:58:15;;;;;;;4.22;4.03;;;;;;;;;;5077309;28;20368;-27
2023/04/23 14:00:42;;;;;;;4.22;3.97;;;;;;;;;;5077045;28;20403;-30
2023/04/23 14:03:08;;;;;;;4.53;4.22;;;;;;;;;;5076922;28;20467;-31
2023/04/23 14:05:34;;;;;;;4.50;4.20;;;;;;;;;;5076770;28;20114;-28
2023/04/23 14:08:00;;;;;;;4.00;3.80;;;;;;;;;;5076022;28;20050;-29
2023/04/23 14:10:27;;;;;;;4.30;4.00;;;;;;;;;;5077075;28;20047;-28
2023/04/23 14:12:53;;;;;;;5.00;4.70;;;;;;;;;;5076787;28;20055;-28
2023/04/23 14:15:19;;;;;;;3.90;3.70;;;;;;;;;;5077056;28;20451;-32
2023/04/23 14:17:46;;;;;;;4.28;3.97;;;;;;;;;;5059099;28;20348;-27
2023/04/23 14:20:18;;;;;;;4.65;4.35;;;;;;;;;;5076613;28;20035;-29
2023/04/23 14:22:48;;;;;;;3.90;3.70;;;;;;;;;;5076901;28;20419;-31
2023/04/23 14:25:15;;;;;;;4.00;3.80;;;;;;;;;;5076566;28;20534;-30
2023/04/23 14:27:45;;;;;;;4.60;4.30;;;;;;;;;;5076552;28;20474;-28
2023/04/23 14:30:15;;;;;;;4.40;4.10;;;;;;;;;;5076685;28;20044;-27
2023/04/23 14:32:42;;;;;;;4.43;4.13;;;;;;;;;;5076313;28;20039;-31
2023/04/23 14:35:08;;;;;;;4.15;3.83;;;;;;;;;;5060048;28;20439;-30
2023/04/23 14:37:35;;;;;;;4.10;3.90;;;;;;;;;;5076898;28;20087;-31
2023/04/23 14:40:01;;;;;;;3.92;3.72;;;;;;;;;;5076507;28;20029;-31
2023/04/23 14:42:27;;;;;;;4.00;3.80;;;;;;;;;;5076119;28;20042;-29